sensor_id;sensor_type;location;lat;lon;timestamp;temperature;humidity
21823;DHT22;11074;48.596;9.238;2023-03-02T00:04:54;3.60;99.90
21823;DHT22;11074;48.596;9.238;2023-03-02T00:07:26;3.60;99.90
21823;DHT22;11074;48.596;9.238;2023-03-02T00:09:56;3.60;99.90
21823;DHT22;11074;48.596;9.238;2023-03-02T00:12:23;3.60;99.90
21823;DHT22;11074;48.596;9.238;2023-03-02T00:14:52;3.50;99.90
21823;DHT22;11074;48.596;9.238;2023-03-02T00:17:18;3.40;99.90
21823;DHT22;11074;48.596;9.238;2023-03-02T00:19:52;3.50;99.90
21823;DHT22;11074;48.596;9.238;2023-03-02T00:22:19;3.50;99.90
21823;DHT22;11074;48.596;9.238;2023-03-02T00:24:44;3.50;99.90
21823;DHT22;11074;48.596;9.238;2023-03-02T00:27:10;3.50;99.90
21823;DHT22;11074;48.596;9.238;2023-03-02T00:29:36;3.40;99.90
21823;DHT22;11074;48.596;9.238;2023-03-02T00:32:01;3.40;99.90
21823;DHT22;11074;48.596;9.238;2023-03-02T00:34:29;3.40;99.90
21823;DHT22;11074;48.596;9.238;2023-03-02T00:36:57;3.40;99.90
21823;DHT22;11074;48.596;9.238;2023-03-02T00:39:23;3.30;99.90
21823;DHT22;11074;48.596;9.238;2023-03-02T00:41:49;3.30;99.90
21823;DHT22;11074;48.596;9.238;2023-03-02T00:44:15;3.30;99.90
21823;DHT22;11074;48.596;9.238;2023-03-02T00:46:43;3.30;99.90
21823;DHT22;11074;48.596;9.238;2023-03-02T00:49:09;3.30;99.90
21823;DHT22;11074;48.596;9.238;2023-03-02T00:51:36;3.30;99.90
21823;DHT22;11074;48.596;9.238;2023-03-02T00:54:01;3.30;99.90
21823;DHT22;11074;48.596;9.238;2023-03-02T00:56:28;3.30;99.90
21823;DHT22;11074;48.596;9.238;2023-03-02T00:58:53;3.20;99.90
21823;DHT22;11074;48.596;9.238;2023-03-02T01:01:19;3.20;99.90
21823;DHT22;11074;48.596;9.238;2023-03-02T01:03:45;3.20;99.90
21823;DHT22;11074;48.596;9.238;2023-03-02T01:06:16;3.20;99.90
21823;DHT22;11074;48.596;9.238;2023-03-02T01:08:43;3.10;99.90
21823;DHT22;11074;48.596;9.238;2023-03-02T01:11:18;3.10;99.90
21823;DHT22;11074;48.596;9.238;2023-03-02T01:13:46;3.10;99.90
21823;DHT22;11074;48.596;9.238;2023-03-02T01:16:14;3.00;99.90
21823;DHT22;11074;48.596;9.238;2023-03-02T01:18:40;3.00;99.90
21823;DHT22;11074;48.596;9.238;2023-03-02T01:21:15;3.00;99.90
21823;DHT22;11074;48.596;9.238;2023-03-02T01:23:41;2.90;99.90
21823;DHT22;11074;48.596;9.238;2023-03-02T01:26:07;2.90;99.90
21823;DHT22;11074;48.596;9.238;2023-03-02T01:28:33;2.90;99.90
21823;DHT22;11074;48.596;9.238;2023-03-02T01:30:58;2.90;99.90
21823;DHT22;11074;48.596;9.238;2023-03-02T01:33:26;2.90;99.90
21823;DHT22;11074;48.596;9.238;2023-03-02T01:35:52;2.80;99.90
21823;DHT22;11074;48.596;9.238;2023-03-02T01:38:19;2.80;99.90
21823;DHT22;11074;48.596;9.238;2023-03-02T01:40:45;2.70;99.90
21823;DHT22;11074;48.596;9.238;2023-03-02T01:43:12;2.70;99.90
21823;DHT22;11074;48.596;9.238;2023-03-02T01:48:15;2.70;99.90
21823;DHT22;11074;48.596;9.238;2023-03-02T01:50:44;2.70;99.90
21823;DHT22;11074;48.596;9.238;2023-03-02T01:53:11;2.70;99.90
21823;DHT22;11074;48.596;9.238;2023-03-02T01:55:39;2.70;99.90
21823;DHT22;11074;48.596;9.238;2023-03-02T01:58:05;2.70;99.90
21823;DHT22;11074;48.596;9.238;2023-03-02T02:00:37;2.70;99.90
21823;DHT22;11074;48.596;9.238;2023-03-02T02:03:10;2.70;99.90
21823;DHT22;11074;48.596;9.238;2023-03-02T02:05:54;2.70;99.90
21823;DHT22;11074;48.596;9.238;2023-03-02T02:08:43;2.70;99.90
21823;DHT22;11074;48.596;9.238;2023-03-02T02:11:11;2.70;99.90
21823;DHT22;11074;48.596;9.238;2023-03-02T02:13:37;2.60;99.90
21823;DHT22;11074;48.596;9.238;2023-03-02T02:16:04;2.60;99.90
21823;DHT22;11074;48.596;9.238;2023-03-02T02:18:30;2.60;99.90
21823;DHT22;11074;48.596;9.238;2023-03-02T02:20:58;2.60;99.90
21823;DHT22;11074;48.596;9.238;2023-03-02T02:23:34;2.50;99.90
21823;DHT22;11074;48.596;9.238;2023-03-02T02:29:15;2.40;99.90
21823;DHT22;11074;48.596;9.238;2023-03-02T02:34:52;2.40;99.90
21823;DHT22;11074;48.596;9.238;2023-03-02T02:37:32;2.40;99.90
21823;DHT22;11074;48.596;9.238;2023-03-02T02:40:04;2.40;99.90
21823;DHT22;11074;48.596;9.238;2023-03-02T02:42:40;2.40;99.90
21823;DHT22;11074;48.596;9.238;2023-03-02T02:47:51;2.40;99.90
21823;DHT22;11074;48.596;9.238;2023-03-02T02:50:22;2.40;99.90
21823;DHT22;11074;48.596;9.238;2023-03-02T02:53:06;2.40;99.90
21823;DHT22;11074;48.596;9.238;2023-03-02T02:55:39;2.40;99.90
21823;DHT22;11074;48.596;9.238;2023-03-02T03:01:13;2.30;99.90
21823;DHT22;11074;48.596;9.238;2023-03-02T03:03:50;2.30;99.90
21823;DHT22;11074;48.596;9.238;2023-03-02T03:06:21;2.30;99.90
21823;DHT22;11074;48.596;9.238;2023-03-02T03:08:57;2.30;99.90
21823;DHT22;11074;48.596;9.238;2023-03-02T03:11:27;2.20;99.90
21823;DHT22;11074;48.596;9.238;2023-03-02T03:14:16;2.20;99.90
21823;DHT22;11074;48.596;9.238;2023-03-02T03:16:45;2.20;99.90
21823;DHT22;11074;48.596;9.238;2023-03-02T03:19:17;2.20;99.90
21823;DHT22;11074;48.596;9.238;2023-03-02T03:21:44;2.20;99.90
21823;DHT22;11074;48.596;9.238;2023-03-02T03:24:12;2.20;99.90
21823;DHT22;11074;48.596;9.238;2023-03-02T03:26:38;2.10;99.90
21823;DHT22;11074;48.596;9.238;2023-03-02T03:29:04;2.10;99.90
21823;DHT22;11074;48.596;9.238;2023-03-02T03:31:29;2.20;99.90
21823;DHT22;11074;48.596;9.238;2023-03-02T03:33:57;2.20;99.90
21823;DHT22;11074;48.596;9.238;2023-03-02T03:36:27;2.10;99.90
21823;DHT22;11074;48.596;9.238;2023-03-02T03:38:54;2.10;99.90
21823;DHT22;11074;48.596;9.238;2023-03-02T03:41:21;2.10;99.90
21823;DHT22;11074;48.596;9.238;2023-03-02T03:43:47;2.10;99.90
21823;DHT22;11074;48.596;9.238;2023-03-02T03:46:12;2.10;99.90
21823;DHT22;11074;48.596;9.238;2023-03-02T03:48:38;2.10;99.90
21823;DHT22;11074;48.596;9.238;2023-03-02T03:51:05;2.10;99.90
21823;DHT22;11074;48.596;9.238;2023-03-02T03:53:32;2.10;99.90
21823;DHT22;11074;48.596;9.238;2023-03-02T03:55:59;2.10;99.90
21823;DHT22;11074;48.596;9.238;2023-03-02T03:58:25;2.10;99.90
21823;DHT22;11074;48.596;9.238;2023-03-02T04:00:51;2.10;99.90
21823;DHT22;11074;48.596;9.238;2023-03-02T04:03:18;2.10;99.90
21823;DHT22;11074;48.596;9.238;2023-03-02T04:05:45;2.10;99.90
21823;DHT22;11074;48.596;9.238;2023-03-02T04:08:11;2.00;99.90
21823;DHT22;11074;48.596;9.238;2023-03-02T04:10:37;1.80;99.90
21823;DHT22;11074;48.596;9.238;2023-03-02T04:13:04;1.80;99.90
21823;DHT22;11074;48.596;9.238;2023-03-02T04:15:29;1.80;99.90
21823;DHT22;11074;48.596;9.238;2023-03-02T04:17:55;1.80;99.90
21823;DHT22;11074;48.596;9.238;2023-03-02T04:20:22;1.90;99.90
21823;DHT22;11074;48.596;9.238;2023-03-02T04:22:51;1.90;99.90
21823;DHT22;11074;48.596;9.238;2023-03-02T04:25:21;2.00;99.90
21823;DHT22;11074;48.596;9.238;2023-03-02T04:27:49;2.00;99.90
21823;DHT22;11074;48.596;9.238;2023-03-02T04:30:19;2.00;99.90
21823;DHT22;11074;48.596;9.238;2023-03-02T04:32:47;1.90;99.90
21823;DHT22;11074;48.596;9.238;2023-03-02T04:35:13;1.90;99.90
21823;DHT22;11074;48.596;9.238;2023-03-02T04:37:42;1.90;99.90
21823;DHT22;11074;48.596;9.238;2023-03-02T04:40:08;2.00;99.90
21823;DHT22;11074;48.596;9.238;2023-03-02T04:42:36;2.00;99.90
21823;DHT22;11074;48.596;9.238;2023-03-02T04:45:02;2.00;99.90
21823;DHT22;11074;48.596;9.238;2023-03-02T04:47:28;2.00;99.90
21823;DHT22;11074;48.596;9.238;2023-03-02T04:49:53;2.00;99.90
21823;DHT22;11074;48.596;9.238;2023-03-02T04:52:21;2.10;99.90
21823;DHT22;11074;48.596;9.238;2023-03-02T04:54:47;2.10;99.90
21823;DHT22;11074;48.596;9.238;2023-03-02T04:57:12;2.20;99.90
21823;DHT22;11074;48.596;9.238;2023-03-02T04:59:38;2.10;99.90
21823;DHT22;11074;48.596;9.238;2023-03-02T05:02:04;2.00;99.90
21823;DHT22;11074;48.596;9.238;2023-03-02T05:04:31;1.90;99.90
21823;DHT22;11074;48.596;9.238;2023-03-02T05:06:57;1.80;99.90
21823;DHT22;11074;48.596;9.238;2023-03-02T05:09:25;1.80;99.90
21823;DHT22;11074;48.596;9.238;2023-03-02T05:11:56;1.90;99.90
21823;DHT22;11074;48.596;9.238;2023-03-02T05:14:24;2.00;99.90
21823;DHT22;11074;48.596;9.238;2023-03-02T05:16:50;2.10;99.90
21823;DHT22;11074;48.596;9.238;2023-03-02T05:19:17;2.20;99.90
21823;DHT22;11074;48.596;9.238;2023-03-02T05:21:44;2.20;99.90
21823;DHT22;11074;48.596;9.238;2023-03-02T05:24:10;2.20;99.90
21823;DHT22;11074;48.596;9.238;2023-03-02T05:26:37;2.20;99.90
21823;DHT22;11074;48.596;9.238;2023-03-02T05:29:03;2.20;99.90
21823;DHT22;11074;48.596;9.238;2023-03-02T05:31:35;2.20;99.90
21823;DHT22;11074;48.596;9.238;2023-03-02T05:34:05;2.20;99.90
21823;DHT22;11074;48.596;9.238;2023-03-02T05:36:33;2.20;99.90
21823;DHT22;11074;48.596;9.238;2023-03-02T05:38:59;2.20;99.90
21823;DHT22;11074;48.596;9.238;2023-03-02T05:41:25;2.30;99.90
21823;DHT22;11074;48.596;9.238;2023-03-02T05:43:51;2.30;99.90
21823;DHT22;11074;48.596;9.238;2023-03-02T05:46:17;2.30;99.90
21823;DHT22;11074;48.596;9.238;2023-03-02T05:48:43;2.30;99.90
21823;DHT22;11074;48.596;9.238;2023-03-02T05:51:09;2.30;99.90
21823;DHT22;11074;48.596;9.238;2023-03-02T05:53:35;2.40;99.90
21823;DHT22;11074;48.596;9.238;2023-03-02T05:56:01;2.30;99.90
21823;DHT22;11074;48.596;9.238;2023-03-02T05:58:27;2.30;99.90
21823;DHT22;11074;48.596;9.238;2023-03-02T06:00:53;2.30;99.90
21823;DHT22;11074;48.596;9.238;2023-03-02T06:03:19;2.30;99.90
21823;DHT22;11074;48.596;9.238;2023-03-02T06:05:44;2.30;99.90
21823;DHT22;11074;48.596;9.238;2023-03-02T06:08:16;2.40;99.90
21823;DHT22;11074;48.596;9.238;2023-03-02T06:10:42;2.40;99.90
21823;DHT22;11074;48.596;9.238;2023-03-02T06:13:08;2.40;99.90
21823;DHT22;11074;48.596;9.238;2023-03-02T06:15:34;2.40;99.90
21823;DHT22;11074;48.596;9.238;2023-03-02T06:18:00;2.40;99.90
21823;DHT22;11074;48.596;9.238;2023-03-02T06:20:26;2.40;99.90
21823;DHT22;11074;48.596;9.238;2023-03-02T06:22:54;2.40;99.90
21823;DHT22;11074;48.596;9.238;2023-03-02T06:25:22;2.40;99.90
21823;DHT22;11074;48.596;9.238;2023-03-02T06:27:52;2.50;99.90
21823;DHT22;11074;48.596;9.238;2023-03-02T06:30:21;2.50;99.90
21823;DHT22;11074;48.596;9.238;2023-03-02T06:32:48;2.50;99.90
21823;DHT22;11074;48.596;9.238;2023-03-02T06:35:15;2.40;99.90
21823;DHT22;11074;48.596;9.238;2023-03-02T06:37:41;2.50;99.90
21823;DHT22;11074;48.596;9.238;2023-03-02T06:40:07;2.40;99.90
21823;DHT22;11074;48.596;9.238;2023-03-02T06:42:38;2.50;99.90
21823;DHT22;11074;48.596;9.238;2023-03-02T06:45:06;2.50;99.90
21823;DHT22;11074;48.596;9.238;2023-03-02T06:47:33;2.50;99.90
21823;DHT22;11074;48.596;9.238;2023-03-02T06:49:59;2.50;99.90
21823;DHT22;11074;48.596;9.238;2023-03-02T06:52:25;2.50;99.90
21823;DHT22;11074;48.596;9.238;2023-03-02T06:54:54;2.40;99.90
21823;DHT22;11074;48.596;9.238;2023-03-02T06:57:20;2.40;99.90
21823;DHT22;11074;48.596;9.238;2023-03-02T06:59:46;2.50;99.90
21823;DHT22;11074;48.596;9.238;2023-03-02T07:02:12;2.50;99.90
21823;DHT22;11074;48.596;9.238;2023-03-02T07:04:38;2.50;99.90
21823;DHT22;11074;48.596;9.238;2023-03-02T07:07:04;2.60;99.90
21823;DHT22;11074;48.596;9.238;2023-03-02T07:09:32;2.60;99.90
21823;DHT22;11074;48.596;9.238;2023-03-02T07:11:58;2.50;99.90
21823;DHT22;11074;48.596;9.238;2023-03-02T07:14:24;2.60;99.90
21823;DHT22;11074;48.596;9.238;2023-03-02T07:16:49;2.70;99.90
21823;DHT22;11074;48.596;9.238;2023-03-02T07:19:15;2.80;99.90
21823;DHT22;11074;48.596;9.238;2023-03-02T07:21:41;2.80;99.90
21823;DHT22;11074;48.596;9.238;2023-03-02T07:24:07;2.90;99.90
21823;DHT22;11074;48.596;9.238;2023-03-02T07:26:33;2.90;99.90
21823;DHT22;11074;48.596;9.238;2023-03-02T07:28:58;3.00;99.90
21823;DHT22;11074;48.596;9.238;2023-03-02T07:31:25;3.00;99.90
21823;DHT22;11074;48.596;9.238;2023-03-02T07:33:51;3.00;99.90
21823;DHT22;11074;48.596;9.238;2023-03-02T07:36:17;3.10;99.90
21823;DHT22;11074;48.596;9.238;2023-03-02T07:38:43;3.20;99.90
21823;DHT22;11074;48.596;9.238;2023-03-02T07:41:09;3.20;99.90
21823;DHT22;11074;48.596;9.238;2023-03-02T07:43:36;3.30;99.90
21823;DHT22;11074;48.596;9.238;2023-03-02T07:46:03;3.30;99.90
21823;DHT22;11074;48.596;9.238;2023-03-02T07:48:30;3.40;99.90
21823;DHT22;11074;48.596;9.238;2023-03-02T07:51:01;3.40;99.90
21823;DHT22;11074;48.596;9.238;2023-03-02T07:53:29;3.40;99.90
21823;DHT22;11074;48.596;9.238;2023-03-02T07:55:55;3.50;99.90
21823;DHT22;11074;48.596;9.238;2023-03-02T07:58:21;3.60;99.90
21823;DHT22;11074;48.596;9.238;2023-03-02T08:00:48;3.60;99.90
21823;DHT22;11074;48.596;9.238;2023-03-02T08:03:14;3.70;99.90
21823;DHT22;11074;48.596;9.238;2023-03-02T08:05:40;3.70;99.90
21823;DHT22;11074;48.596;9.238;2023-03-02T08:08:06;3.70;99.90
21823;DHT22;11074;48.596;9.238;2023-03-02T08:10:35;3.70;99.90
21823;DHT22;11074;48.596;9.238;2023-03-02T08:13:01;3.80;99.90
21823;DHT22;11074;48.596;9.238;2023-03-02T08:15:28;3.80;99.90
21823;DHT22;11074;48.596;9.238;2023-03-02T08:17:53;3.80;99.90
21823;DHT22;11074;48.596;9.238;2023-03-02T08:20:19;3.80;99.90
21823;DHT22;11074;48.596;9.238;2023-03-02T08:22:44;3.90;99.90
21823;DHT22;11074;48.596;9.238;2023-03-02T08:25:10;4.00;99.90
21823;DHT22;11074;48.596;9.238;2023-03-02T08:27:36;4.00;99.90
21823;DHT22;11074;48.596;9.238;2023-03-02T08:30:05;4.10;99.90
21823;DHT22;11074;48.596;9.238;2023-03-02T08:32:32;4.00;99.90
21823;DHT22;11074;48.596;9.238;2023-03-02T08:34:59;4.10;99.90
21823;DHT22;11074;48.596;9.238;2023-03-02T08:37:24;4.20;99.90
21823;DHT22;11074;48.596;9.238;2023-03-02T08:39:50;4.20;99.90
21823;DHT22;11074;48.596;9.238;2023-03-02T08:42:16;4.20;99.90
21823;DHT22;11074;48.596;9.238;2023-03-02T08:44:42;4.30;99.90
21823;DHT22;11074;48.596;9.238;2023-03-02T08:47:08;4.40;99.90
21823;DHT22;11074;48.596;9.238;2023-03-02T08:49:34;4.40;99.90
21823;DHT22;11074;48.596;9.238;2023-03-02T08:52:02;4.40;99.90
21823;DHT22;11074;48.596;9.238;2023-03-02T08:54:28;4.50;99.90
21823;DHT22;11074;48.596;9.238;2023-03-02T08:56:54;4.50;99.90
21823;DHT22;11074;48.596;9.238;2023-03-02T08:59:20;4.50;99.90
21823;DHT22;11074;48.596;9.238;2023-03-02T09:01:46;4.60;99.90
21823;DHT22;11074;48.596;9.238;2023-03-02T09:04:12;4.60;99.90
21823;DHT22;11074;48.596;9.238;2023-03-02T09:06:42;4.70;99.90
21823;DHT22;11074;48.596;9.238;2023-03-02T09:09:11;4.80;99.90
21823;DHT22;11074;48.596;9.238;2023-03-02T09:11:39;4.90;99.90
21823;DHT22;11074;48.596;9.238;2023-03-02T09:14:09;4.90;99.90
21823;DHT22;11074;48.596;9.238;2023-03-02T09:16:35;4.90;99.90
21823;DHT22;11074;48.596;9.238;2023-03-02T09:19:01;5.00;99.90
21823;DHT22;11074;48.596;9.238;2023-03-02T09:21:27;5.10;99.90
21823;DHT22;11074;48.596;9.238;2023-03-02T09:23:53;5.20;99.90
21823;DHT22;11074;48.596;9.238;2023-03-02T09:26:22;5.20;99.90
21823;DHT22;11074;48.596;9.238;2023-03-02T09:28:49;5.30;99.90
21823;DHT22;11074;48.596;9.238;2023-03-02T09:31:15;5.30;99.90
21823;DHT22;11074;48.596;9.238;2023-03-02T09:33:41;5.30;99.90
21823;DHT22;11074;48.596;9.238;2023-03-02T09:36:07;5.40;99.90
21823;DHT22;11074;48.596;9.238;2023-03-02T09:38:36;5.40;99.90
21823;DHT22;11074;48.596;9.238;2023-03-02T09:44:28;5.50;99.90
21823;DHT22;11074;48.596;9.238;2023-03-02T09:47:18;5.50;99.90
21823;DHT22;11074;48.596;9.238;2023-03-02T09:55:46;5.80;99.90
21823;DHT22;11074;48.596;9.238;2023-03-02T09:58:19;5.90;99.90
21823;DHT22;11074;48.596;9.238;2023-03-02T10:00:48;6.00;99.90
21823;DHT22;11074;48.596;9.238;2023-03-02T10:03:17;6.10;99.90
21823;DHT22;11074;48.596;9.238;2023-03-02T10:05:48;6.20;99.90
21823;DHT22;11074;48.596;9.238;2023-03-02T10:08:20;6.30;99.90
21823;DHT22;11074;48.596;9.238;2023-03-02T10:11:13;6.40;99.90
21823;DHT22;11074;48.596;9.238;2023-03-02T10:14:00;6.50;99.90
21823;DHT22;11074;48.596;9.238;2023-03-02T10:16:47;6.50;99.90
21823;DHT22;11074;48.596;9.238;2023-03-02T10:19:24;6.60;99.90
21823;DHT22;11074;48.596;9.238;2023-03-02T10:22:08;6.60;99.90
21823;DHT22;11074;48.596;9.238;2023-03-02T10:27:38;6.70;99.90
21823;DHT22;11074;48.596;9.238;2023-03-02T10:30:27;6.70;99.90
21823;DHT22;11074;48.596;9.238;2023-03-02T10:33:03;6.70;99.90
21823;DHT22;11074;48.596;9.238;2023-03-02T10:35:50;6.80;99.90
21823;DHT22;11074;48.596;9.238;2023-03-02T10:38:20;6.80;99.90
21823;DHT22;11074;48.596;9.238;2023-03-02T10:40:50;6.80;99.90
21823;DHT22;11074;48.596;9.238;2023-03-02T10:43:36;6.60;99.90
21823;DHT22;11074;48.596;9.238;2023-03-02T10:46:09;7.10;99.90
21823;DHT22;11074;48.596;9.238;2023-03-02T10:48:55;7.20;99.90
21823;DHT22;11074;48.596;9.238;2023-03-02T10:51:25;7.30;99.90
21823;DHT22;11074;48.596;9.238;2023-03-02T10:54:09;7.30;99.90
21823;DHT22;11074;48.596;9.238;2023-03-02T10:56:37;7.50;99.90
21823;DHT22;11074;48.596;9.238;2023-03-02T10:59:44;7.60;99.90
21823;DHT22;11074;48.596;9.238;2023-03-02T11:04:51;7.40;99.90
21823;DHT22;11074;48.596;9.238;2023-03-02T11:07:21;7.60;99.90
21823;DHT22;11074;48.596;9.238;2023-03-02T11:10:14;8.10;99.90
21823;DHT22;11074;48.596;9.238;2023-03-02T11:12:44;8.10;99.90
21823;DHT22;11074;48.596;9.238;2023-03-02T11:15:27;8.20;99.90
21823;DHT22;11074;48.596;9.238;2023-03-02T11:18:28;8.40;99.90
21823;DHT22;11074;48.596;9.238;2023-03-02T11:21:03;8.60;99.90
21823;DHT22;11074;48.596;9.238;2023-03-02T11:26:26;8.20;99.90
21823;DHT22;11074;48.596;9.238;2023-03-02T11:31:50;8.50;99.90
21823;DHT22;11074;48.596;9.238;2023-03-02T11:34:59;8.80;99.90
21823;DHT22;11074;48.596;9.238;2023-03-02T11:37:38;8.90;99.90
21823;DHT22;11074;48.596;9.238;2023-03-02T11:41:19;9.00;99.90
21823;DHT22;11074;48.596;9.238;2023-03-02T11:43:43;9.10;99.90
21823;DHT22;11074;48.596;9.238;2023-03-02T11:46:15;9.30;99.90
21823;DHT22;11074;48.596;9.238;2023-03-02T11:48:49;9.40;99.90
21823;DHT22;11074;48.596;9.238;2023-03-02T11:51:45;9.40;99.90
21823;DHT22;11074;48.596;9.238;2023-03-02T11:57:02;9.20;99.90
21823;DHT22;11074;48.596;9.238;2023-03-02T11:59:29;9.20;99.90
21823;DHT22;11074;48.596;9.238;2023-03-02T12:01:56;9.10;99.90
21823;DHT22;11074;48.596;9.238;2023-03-02T12:04:33;9.10;99.90
21823;DHT22;11074;48.596;9.238;2023-03-02T12:07:24;9.00;99.90
21823;DHT22;11074;48.596;9.238;2023-03-02T12:12:47;8.70;99.90
21823;DHT22;11074;48.596;9.238;2023-03-02T12:15:41;8.80;99.90
21823;DHT22;11074;48.596;9.238;2023-03-02T12:21:20;9.40;99.90
21823;DHT22;11074;48.596;9.238;2023-03-02T12:29:00;10.20;99.90
21823;DHT22;11074;48.596;9.238;2023-03-02T12:34:36;9.90;99.90
21823;DHT22;11074;48.596;9.238;2023-03-02T12:43:36;9.10;99.90
21823;DHT22;11074;48.596;9.238;2023-03-02T12:46:26;9.50;99.90
21823;DHT22;11074;48.596;9.238;2023-03-02T12:49:02;10.00;99.90
21823;DHT22;11074;48.596;9.238;2023-03-02T12:57:37;11.10;99.90
21823;DHT22;11074;48.596;9.238;2023-03-02T13:00:15;10.90;99.90
21823;DHT22;11074;48.596;9.238;2023-03-02T13:02:49;10.60;99.90
21823;DHT22;11074;48.596;9.238;2023-03-02T13:05:22;10.30;99.90
21823;DHT22;11074;48.596;9.238;2023-03-02T13:08:07;10.20;99.90
21823;DHT22;11074;48.596;9.238;2023-03-02T13:10:48;10.10;99.90
21823;DHT22;11074;48.596;9.238;2023-03-02T13:13:24;10.10;99.90
21823;DHT22;11074;48.596;9.238;2023-03-02T13:15:59;10.10;99.90
21823;DHT22;11074;48.596;9.238;2023-03-02T13:18:32;10.10;99.90
21823;DHT22;11074;48.596;9.238;2023-03-02T13:21:02;10.50;99.90
21823;DHT22;11074;48.596;9.238;2023-03-02T13:23:31;10.70;99.90
21823;DHT22;11074;48.596;9.238;2023-03-02T13:26:03;10.70;99.90
21823;DHT22;11074;48.596;9.238;2023-03-02T13:28:31;10.60;99.90
21823;DHT22;11074;48.596;9.238;2023-03-02T13:31:13;10.50;99.90
21823;DHT22;11074;48.596;9.238;2023-03-02T13:33:45;10.50;99.90
21823;DHT22;11074;48.596;9.238;2023-03-02T13:36:22;10.50;99.90
21823;DHT22;11074;48.596;9.238;2023-03-02T13:39:00;10.80;99.90
21823;DHT22;11074;48.596;9.238;2023-03-02T13:41:30;11.20;99.90
21823;DHT22;11074;48.596;9.238;2023-03-02T13:43:58;11.50;99.90
21823;DHT22;11074;48.596;9.238;2023-03-02T13:46:35;11.70;99.90
21823;DHT22;11074;48.596;9.238;2023-03-02T13:49:03;11.90;99.90
21823;DHT22;11074;48.596;9.238;2023-03-02T13:51:34;12.00;99.90
21823;DHT22;11074;48.596;9.238;2023-03-02T13:54:29;12.10;99.90
21823;DHT22;11074;48.596;9.238;2023-03-02T13:56:58;12.30;99.90
21823;DHT22;11074;48.596;9.238;2023-03-02T13:59:27;12.40;99.90
21823;DHT22;11074;48.596;9.238;2023-03-02T14:01:54;12.40;99.90
21823;DHT22;11074;48.596;9.238;2023-03-02T14:04:21;12.60;99.90
21823;DHT22;11074;48.596;9.238;2023-03-02T14:06:51;12.50;99.90
21823;DHT22;11074;48.596;9.238;2023-03-02T14:09:18;12.50;99.90
21823;DHT22;11074;48.596;9.238;2023-03-02T14:11:47;12.60;99.90
21823;DHT22;11074;48.596;9.238;2023-03-02T14:14:19;12.80;99.90
21823;DHT22;11074;48.596;9.238;2023-03-02T14:16:47;12.90;99.90
21823;DHT22;11074;48.596;9.238;2023-03-02T14:19:14;13.00;99.90
21823;DHT22;11074;48.596;9.238;2023-03-02T14:21:43;13.20;99.90
21823;DHT22;11074;48.596;9.238;2023-03-02T14:24:10;13.50;99.90
21823;DHT22;11074;48.596;9.238;2023-03-02T14:26:44;14.00;99.90
21823;DHT22;11074;48.596;9.238;2023-03-02T14:29:30;14.50;99.90
21823;DHT22;11074;48.596;9.238;2023-03-02T14:32:00;15.20;99.90
21823;DHT22;11074;48.596;9.238;2023-03-02T14:34:33;15.90;99.90
21823;DHT22;11074;48.596;9.238;2023-03-02T14:37:03;16.40;99.90
21823;DHT22;11074;48.596;9.238;2023-03-02T14:42:01;16.30;99.90
21823;DHT22;11074;48.596;9.238;2023-03-02T14:44:27;15.90;99.90
21823;DHT22;11074;48.596;9.238;2023-03-02T14:46:53;15.90;99.90
21823;DHT22;11074;48.596;9.238;2023-03-02T14:49:19;16.20;99.90
21823;DHT22;11074;48.596;9.238;2023-03-02T14:52:02;16.70;99.90
21823;DHT22;11074;48.596;9.238;2023-03-02T14:54:53;17.00;99.90
21823;DHT22;11074;48.596;9.238;2023-03-02T14:57:24;16.80;99.90
21823;DHT22;11074;48.596;9.238;2023-03-02T14:59:52;16.70;99.90
21823;DHT22;11074;48.596;9.238;2023-03-02T15:02:20;16.60;99.90
21823;DHT22;11074;48.596;9.238;2023-03-02T15:04:47;17.00;99.90
21823;DHT22;11074;48.596;9.238;2023-03-02T15:07:17;17.30;99.90
21823;DHT22;11074;48.596;9.238;2023-03-02T15:09:45;17.50;99.90
21823;DHT22;11074;48.596;9.238;2023-03-02T15:12:12;17.60;99.90
21823;DHT22;11074;48.596;9.238;2023-03-02T15:14:37;17.70;99.90
21823;DHT22;11074;48.596;9.238;2023-03-02T15:17:04;17.70;99.90
21823;DHT22;11074;48.596;9.238;2023-03-02T15:19:30;17.30;99.90
21823;DHT22;11074;48.596;9.238;2023-03-02T15:21:56;16.50;99.90
21823;DHT22;11074;48.596;9.238;2023-03-02T15:24:22;16.30;99.90
21823;DHT22;11074;48.596;9.238;2023-03-02T15:26:49;16.20;99.90
21823;DHT22;11074;48.596;9.238;2023-03-02T15:29:16;16.10;99.90
21823;DHT22;11074;48.596;9.238;2023-03-02T15:31:42;15.80;99.90
21823;DHT22;11074;48.596;9.238;2023-03-02T15:34:08;15.80;99.90
21823;DHT22;11074;48.596;9.238;2023-03-02T15:36:34;15.50;99.90
21823;DHT22;11074;48.596;9.238;2023-03-02T15:39:00;14.60;99.90
21823;DHT22;11074;48.596;9.238;2023-03-02T15:41:26;14.20;99.90
21823;DHT22;11074;48.596;9.238;2023-03-02T15:43:52;13.80;99.90
21823;DHT22;11074;48.596;9.238;2023-03-02T15:46:22;13.60;99.90
21823;DHT22;11074;48.596;9.238;2023-03-02T15:48:48;13.70;99.90
21823;DHT22;11074;48.596;9.238;2023-03-02T15:51:16;13.40;99.90
21823;DHT22;11074;48.596;9.238;2023-03-02T15:53:42;12.90;99.90
21823;DHT22;11074;48.596;9.238;2023-03-02T15:56:11;12.30;99.90
21823;DHT22;11074;48.596;9.238;2023-03-02T15:58:38;11.80;99.90
21823;DHT22;11074;48.596;9.238;2023-03-02T16:01:11;11.40;99.90
21823;DHT22;11074;48.596;9.238;2023-03-02T16:03:38;11.30;99.90
21823;DHT22;11074;48.596;9.238;2023-03-02T16:06:04;11.30;99.90
21823;DHT22;11074;48.596;9.238;2023-03-02T16:08:30;11.40;99.90
21823;DHT22;11074;48.596;9.238;2023-03-02T16:11:00;11.10;99.90
21823;DHT22;11074;48.596;9.238;2023-03-02T16:13:28;10.70;99.90
21823;DHT22;11074;48.596;9.238;2023-03-02T16:15:55;10.30;99.90
21823;DHT22;11074;48.596;9.238;2023-03-02T16:18:21;10.00;99.90
21823;DHT22;11074;48.596;9.238;2023-03-02T16:20:47;9.80;99.90
21823;DHT22;11074;48.596;9.238;2023-03-02T16:23:13;9.60;99.90
21823;DHT22;11074;48.596;9.238;2023-03-02T16:25:41;9.40;99.90
21823;DHT22;11074;48.596;9.238;2023-03-02T16:28:09;9.30;99.90
21823;DHT22;11074;48.596;9.238;2023-03-02T16:30:36;9.10;99.90
21823;DHT22;11074;48.596;9.238;2023-03-02T16:33:04;9.00;99.90
21823;DHT22;11074;48.596;9.238;2023-03-02T16:35:33;8.90;99.90
21823;DHT22;11074;48.596;9.238;2023-03-02T16:38:00;8.80;99.90
21823;DHT22;11074;48.596;9.238;2023-03-02T16:40:26;8.80;99.90
21823;DHT22;11074;48.596;9.238;2023-03-02T16:42:52;8.70;99.90
21823;DHT22;11074;48.596;9.238;2023-03-02T16:45:19;8.60;99.90
21823;DHT22;11074;48.596;9.238;2023-03-02T16:47:46;8.50;99.90
21823;DHT22;11074;48.596;9.238;2023-03-02T16:50:13;8.40;99.90
21823;DHT22;11074;48.596;9.238;2023-03-02T16:52:41;8.30;99.90
21823;DHT22;11074;48.596;9.238;2023-03-02T16:55:11;8.20;99.90
21823;DHT22;11074;48.596;9.238;2023-03-02T16:57:42;8.10;99.90
21823;DHT22;11074;48.596;9.238;2023-03-02T17:00:10;7.90;99.90
21823;DHT22;11074;48.596;9.238;2023-03-02T17:02:39;7.90;99.90
21823;DHT22;11074;48.596;9.238;2023-03-02T17:05:06;7.80;99.90
21823;DHT22;11074;48.596;9.238;2023-03-02T17:07:33;7.80;99.90
21823;DHT22;11074;48.596;9.238;2023-03-02T17:09:59;7.80;99.90